createdAt,value
2022-07-29T00:01:44.237Z,15.35
2022-07-29T00:04:13.188Z,15.32
2022-07-29T00:06:43.205Z,15.30
2022-07-29T00:09:13.311Z,15.36
2022-07-29T00:11:41.785Z,15.40
2022-07-29T00:14:11.004Z,15.45
2022-07-29T00:16:40.654Z,15.43
2022-07-29T00:19:09.185Z,15.47
2022-07-29T00:21:39.300Z,15.50
2022-07-29T00:24:08.091Z,15.51
2022-07-29T00:26:38.164Z,15.56
2022-07-29T00:29:33.172Z,15.62
2022-07-29T00:31:55.523Z,15.66
2022-07-29T00:34:41.176Z,15.63
2022-07-29T00:37:09.618Z,15.53
2022-07-29T00:39:38.451Z,15.49
2022-07-29T00:42:09.238Z,15.56
2022-07-29T00:44:40.964Z,15.59
2022-07-29T00:47:11.156Z,15.64
2022-07-29T00:49:42.288Z,15.65
2022-07-29T00:52:12.108Z,15.68
2022-07-29T00:54:44.380Z,15.73
2022-07-29T00:57:15.405Z,15.73
2022-07-29T00:59:44.081Z,15.68
2022-07-29T01:02:12.696Z,15.66
2022-07-29T01:04:43.095Z,15.67
2022-07-29T01:07:12.493Z,15.70
2022-07-29T01:09:46.906Z,15.70
2022-07-29T01:12:21.140Z,15.68
2022-07-29T01:14:52.190Z,15.70
2022-07-29T01:17:26.927Z,15.71
2022-07-29T01:20:02.605Z,15.70
2022-07-29T01:22:47.716Z,15.72
2022-07-29T01:25:37.322Z,15.70
2022-07-29T01:28:28.123Z,15.68
2022-07-29T01:31:03.688Z,15.68
2022-07-29T01:33:51.400Z,15.75
2022-07-29T01:36:26.130Z,15.73
2022-07-29T01:39:01.524Z,15.75
2022-07-29T01:41:33.948Z,15.74
2022-07-29T01:44:07.003Z,15.75
2022-07-29T01:46:46.934Z,15.73
2022-07-29T01:49:19.211Z,15.70
2022-07-29T01:51:52.068Z,15.73
2022-07-29T01:54:27.515Z,15.70
2022-07-29T01:56:59.711Z,15.71
2022-07-29T01:59:29.621Z,15.69
2022-07-29T02:02:09.523Z,15.67
2022-07-29T02:04:39.697Z,15.62
2022-07-29T02:07:13.308Z,15.65
2022-07-29T02:09:44.416Z,15.63
2022-07-29T02:12:15.224Z,15.56
2022-07-29T02:14:48.786Z,15.52
2022-07-29T02:17:25.003Z,15.52
2022-07-29T02:19:58.921Z,15.38
2022-07-29T02:22:31.112Z,15.43
2022-07-29T02:25:01.001Z,15.41
2022-07-29T02:27:31.676Z,15.42
2022-07-29T02:30:03.411Z,15.51
2022-07-29T02:32:36.647Z,15.53
2022-07-29T02:35:06.366Z,15.52
2022-07-29T02:37:35.703Z,15.46
2022-07-29T02:40:05.655Z,15.50
2022-07-29T02:42:36.377Z,15.55
2022-07-29T02:45:05.660Z,15.61
2022-07-29T02:47:41.810Z,15.62
2022-07-29T02:50:15.317Z,15.65
2022-07-29T02:52:48.668Z,15.69
2022-07-29T02:55:21.628Z,15.70
2022-07-29T02:57:57.425Z,15.69
2022-07-29T03:00:30.124Z,15.72
2022-07-29T03:03:05.308Z,15.72
2022-07-29T03:05:34.059Z,15.75
2022-07-29T03:08:08.374Z,15.79
2022-07-29T03:10:39.947Z,15.77
2022-07-29T03:13:10.078Z,15.74
2022-07-29T03:15:39.839Z,15.70
2022-07-29T03:18:10.624Z,15.64
2022-07-29T03:20:41.711Z,15.50
2022-07-29T03:23:11.407Z,15.49
2022-07-29T03:25:40.821Z,15.55
2022-07-29T03:28:09.999Z,15.58
2022-07-29T03:30:39.508Z,15.52
2022-07-29T03:33:13.562Z,15.51
2022-07-29T03:35:42.451Z,15.54
2022-07-29T03:38:10.973Z,15.45
2022-07-29T03:40:45.409Z,15.36
2022-07-29T03:43:18.025Z,15.31
2022-07-29T03:45:50.648Z,15.30
2022-07-29T03:48:24.985Z,15.23
2022-07-29T03:50:53.970Z,15.20
2022-07-29T03:53:22.797Z,15.05
2022-07-29T03:55:56.366Z,14.94
2022-07-29T03:58:27.550Z,14.91
2022-07-29T04:00:57.522Z,14.86
2022-07-29T04:03:28.027Z,14.83
2022-07-29T04:06:07.112Z,14.86
2022-07-29T04:08:35.997Z,14.90
2022-07-29T04:11:05.285Z,14.89
2022-07-29T04:13:35.133Z,14.92
2022-07-29T04:16:03.858Z,14.94
2022-07-29T04:18:33.662Z,14.96
2022-07-29T04:21:02.483Z,15.02
2022-07-29T04:23:34.739Z,15.09
2022-07-29T04:26:03.313Z,15.11
2022-07-29T04:28:32.019Z,15.12
2022-07-29T04:31:00.994Z,15.07
2022-07-29T04:33:30.366Z,15.09
2022-07-29T04:36:00.458Z,15.11
2022-07-29T04:38:29.598Z,15.13
2022-07-29T04:40:58.158Z,15.10
2022-07-29T04:43:26.740Z,15.13
2022-07-29T04:45:56.397Z,15.18
2022-07-29T04:48:28.742Z,15.20
2022-07-29T04:50:57.861Z,15.19
2022-07-29T04:53:28.497Z,15.19
2022-07-29T04:55:57.026Z,15.20
2022-07-29T04:58:25.419Z,15.21
2022-07-29T05:00:53.931Z,15.20
2022-07-29T05:03:22.780Z,15.22
2022-07-29T05:05:51.040Z,15.25
2022-07-29T05:08:19.912Z,15.22
2022-07-29T05:10:49.910Z,15.23
2022-07-29T05:13:18.393Z,15.28
2022-07-29T05:15:47.135Z,15.29
2022-07-29T05:18:16.380Z,15.29
2022-07-29T05:20:44.822Z,15.29
2022-07-29T05:23:15.841Z,15.26
2022-07-29T05:25:45.024Z,15.28
2022-07-29T05:28:15.211Z,15.32
2022-07-29T05:30:45.545Z,15.32
2022-07-29T05:33:35.091Z,15.38
2022-07-29T05:36:02.347Z,15.48
2022-07-29T05:38:32.336Z,15.50
2022-07-29T05:41:02.203Z,15.49
2022-07-29T05:43:32.159Z,15.41
2022-07-29T05:46:00.829Z,15.41
2022-07-29T05:48:30.765Z,15.38
2022-07-29T05:50:59.233Z,15.38
2022-07-29T05:53:27.933Z,15.41
2022-07-29T05:55:56.708Z,15.44
2022-07-29T05:58:25.254Z,15.48
2022-07-29T06:01:00.492Z,15.51
2022-07-29T06:03:29.514Z,15.55
2022-07-29T06:05:59.198Z,15.58
2022-07-29T06:08:28.310Z,15.57
2022-07-29T06:10:56.770Z,15.58
2022-07-29T06:13:25.264Z,15.64
2022-07-29T06:15:57.176Z,15.65
2022-07-29T06:18:26.168Z,15.71
2022-07-29T06:20:55.639Z,15.82
2022-07-29T06:23:24.513Z,15.85
2022-07-29T06:25:53.108Z,15.84
2022-07-29T06:28:21.699Z,15.83
2022-07-29T06:30:50.810Z,15.89
2022-07-29T06:33:21.851Z,15.91
2022-07-29T06:35:53.341Z,15.88
2022-07-29T06:38:30.768Z,15.93
2022-07-29T06:41:05.384Z,15.94
2022-07-29T06:43:52.208Z,15.99
2022-07-29T06:46:25.149Z,16.07
2022-07-29T06:48:55.513Z,16.19
2022-07-29T06:51:25.171Z,16.31
2022-07-29T06:53:58.098Z,16.34
2022-07-29T06:56:30.403Z,16.35
2022-07-29T06:59:01.592Z,16.37
2022-07-29T07:01:31.271Z,16.44
2022-07-29T07:04:01.179Z,16.48
2022-07-29T07:06:29.852Z,16.50
2022-07-29T07:08:58.405Z,16.60
2022-07-29T07:11:26.824Z,16.75
2022-07-29T07:13:59.288Z,16.76
2022-07-29T07:16:30.972Z,16.74
2022-07-29T07:19:00.854Z,16.84
2022-07-29T07:21:30.543Z,16.88
2022-07-29T07:24:00.946Z,16.86
2022-07-29T07:26:31.368Z,16.88
2022-07-29T07:29:01.783Z,16.89
2022-07-29T07:31:30.342Z,16.90
2022-07-29T07:33:59.349Z,16.98
2022-07-29T07:36:29.314Z,17.16
2022-07-29T07:38:57.959Z,17.20
2022-07-29T07:41:26.533Z,17.23
2022-07-29T07:44:01.874Z,17.36
2022-07-29T07:46:31.935Z,17.37
2022-07-29T07:49:01.412Z,17.47
2022-07-29T07:51:31.759Z,17.54
2022-07-29T07:54:00.705Z,17.55
2022-07-29T07:56:35.126Z,17.65
2022-07-29T07:59:04.328Z,17.70
2022-07-29T08:01:47.875Z,17.85
2022-07-29T08:04:27.114Z,17.87
2022-07-29T08:06:59.416Z,17.89
2022-07-29T08:09:30.691Z,17.95
2022-07-29T08:12:01.278Z,18.02
2022-07-29T08:14:30.185Z,18.07
2022-07-29T08:16:58.864Z,18.01
2022-07-29T08:19:27.197Z,18.00
2022-07-29T08:21:56.004Z,18.07
2022-07-29T08:24:43.352Z,18.08
2022-07-29T08:27:40.714Z,18.22
2022-07-29T08:30:01.034Z,18.28
2022-07-29T08:32:52.167Z,18.22
2022-07-29T08:35:20.200Z,18.11
2022-07-29T08:37:48.947Z,18.12
2022-07-29T08:40:19.344Z,18.15
2022-07-29T08:42:48.234Z,18.10
2022-07-29T08:45:16.792Z,18.06
2022-07-29T08:47:47.373Z,17.98
2022-07-29T08:50:16.080Z,18.08
2022-07-29T08:52:44.610Z,18.23
2022-07-29T08:55:13.946Z,18.37
2022-07-29T08:57:54.168Z,18.29
2022-07-29T09:00:25.321Z,18.39
2022-07-29T09:03:00.348Z,18.57
2022-07-29T09:05:30.151Z,18.77
2022-07-29T09:07:59.082Z,18.80
2022-07-29T09:10:27.439Z,18.85
2022-07-29T09:12:59.389Z,18.90
2022-07-29T09:15:29.137Z,18.89
2022-07-29T09:17:59.661Z,18.97
2022-07-29T09:20:48.310Z,19.04
2022-07-29T09:23:23.119Z,19.12
2022-07-29T09:25:53.003Z,19.57
2022-07-29T09:28:24.885Z,19.90
2022-07-29T09:30:55.037Z,19.97
2022-07-29T09:33:24.324Z,20.04
2022-07-29T09:36:02.007Z,20.16
2022-07-29T09:38:30.781Z,20.13
2022-07-29T09:41:06.039Z,20.36
2022-07-29T09:43:36.713Z,20.36
2022-07-29T09:46:22.957Z,20.14
2022-07-29T09:49:09.493Z,19.76
2022-07-29T09:51:39.784Z,19.59
2022-07-29T09:54:27.062Z,19.43
2022-07-29T09:56:58.117Z,19.24
2022-07-29T09:59:29.435Z,19.14
2022-07-29T10:01:59.383Z,19.09
2022-07-29T10:04:40.292Z,19.12
2022-07-29T10:07:09.011Z,19.20
2022-07-29T10:09:38.283Z,19.39
2022-07-29T10:12:12.233Z,19.67
2022-07-29T10:14:43.118Z,20.01
2022-07-29T10:17:13.043Z,20.21
2022-07-29T10:19:43.707Z,20.10
2022-07-29T10:22:14.967Z,19.86
2022-07-29T10:24:43.871Z,19.89
2022-07-29T10:27:12.243Z,19.76
2022-07-29T10:29:42.098Z,19.61
2022-07-29T10:32:28.283Z,19.49
2022-07-29T10:35:33.774Z,19.35
2022-07-29T10:38:28.758Z,19.23
2022-07-29T10:41:36.340Z,19.01
2022-07-29T10:44:19.385Z,19.07
2022-07-29T10:46:55.595Z,19.18
2022-07-29T10:49:30.477Z,19.13
2022-07-29T10:52:06.421Z,19.16
2022-07-29T10:54:51.737Z,19.19
2022-07-29T10:57:53.692Z,19.16
2022-07-29T11:00:35.173Z,19.06
2022-07-29T11:03:10.476Z,19.12
2022-07-29T11:05:59.708Z,19.19
2022-07-29T11:08:29.189Z,19.15
2022-07-29T11:11:30.572Z,19.14
2022-07-29T11:14:00.847Z,19.10
2022-07-29T11:17:06.505Z,19.20
2022-07-29T11:19:42.386Z,18.93
2022-07-29T11:22:15.089Z,18.92
2022-07-29T11:24:50.201Z,19.18
2022-07-29T11:27:21.292Z,19.34
2022-07-29T11:30:01.096Z,19.46
2022-07-29T11:32:40.291Z,19.57
2022-07-29T11:35:36.928Z,19.62
2022-07-29T11:38:27.852Z,19.63
2022-07-29T11:41:25.971Z,19.55
2022-07-29T11:43:57.193Z,19.52
2022-07-29T11:46:48.104Z,19.63
2022-07-29T11:49:31.500Z,19.76
2022-07-29T11:52:04.318Z,19.73
2022-07-29T11:54:38.898Z,19.80
2022-07-29T11:57:35.991Z,19.65
2022-07-29T12:00:12.555Z,19.70
2022-07-29T12:02:48.441Z,19.89
2022-07-29T12:05:35.920Z,19.96
2022-07-29T12:08:20.238Z,20.09
2022-07-29T12:10:49.851Z,19.97
2022-07-29T12:13:22.971Z,19.91
2022-07-29T12:16:07.554Z,19.87
2022-07-29T12:18:35.965Z,19.87
2022-07-29T12:21:05.804Z,19.90
2022-07-29T12:23:36.276Z,19.93
2022-07-29T12:26:11.097Z,20.22
2022-07-29T12:28:54.719Z,20.42
2022-07-29T12:31:44.032Z,20.75
2022-07-29T12:34:13.663Z,21.14
2022-07-29T12:36:43.756Z,21.45
2022-07-29T12:39:14.593Z,21.25
2022-07-29T12:41:43.179Z,21.45
2022-07-29T12:44:12.282Z,21.54
2022-07-29T12:46:40.969Z,21.56
2022-07-29T12:49:10.161Z,21.41
2022-07-29T12:51:41.764Z,21.54
2022-07-29T12:54:14.569Z,21.65
2022-07-29T12:56:45.838Z,21.55
2022-07-29T12:59:16.079Z,21.45
2022-07-29T13:01:44.819Z,21.60
2022-07-29T13:04:13.631Z,21.72
2022-07-29T13:06:46.118Z,21.62
2022-07-29T13:09:23.647Z,21.68
2022-07-29T13:11:55.124Z,21.66
2022-07-29T13:14:34.235Z,21.97
2022-07-29T13:17:06.328Z,21.95
2022-07-29T13:19:37.683Z,22.00
2022-07-29T13:22:06.945Z,22.02
2022-07-29T13:24:47.375Z,22.10
2022-07-29T13:27:17.526Z,22.28
2022-07-29T13:29:47.557Z,22.47
2022-07-29T13:32:16.622Z,22.40
2022-07-29T13:34:48.637Z,22.15
2022-07-29T13:37:18.192Z,22.23
2022-07-29T13:39:51.385Z,22.22
2022-07-29T13:42:22.325Z,22.19
2022-07-29T13:44:53.271Z,22.32
2022-07-29T13:47:22.563Z,22.33
2022-07-29T13:50:02.613Z,22.55
2022-07-29T13:52:31.565Z,22.53
2022-07-29T13:55:02.131Z,22.41
2022-07-29T13:57:31.504Z,22.54
2022-07-29T14:00:00.345Z,22.42
2022-07-29T14:02:28.845Z,22.27
2022-07-29T14:04:57.737Z,22.40
2022-07-29T14:07:26.883Z,22.37
2022-07-29T14:09:55.793Z,22.23
2022-07-29T14:12:26.611Z,21.92
2022-07-29T14:14:55.464Z,21.85
2022-07-29T14:17:25.236Z,21.94
2022-07-29T14:19:53.814Z,21.87
2022-07-29T14:22:23.121Z,21.87
2022-07-29T14:24:53.961Z,21.81
2022-07-29T14:27:37.333Z,21.78
2022-07-29T14:30:10.859Z,21.80
2022-07-29T14:32:39.395Z,21.73
2022-07-29T14:35:08.955Z,21.61
2022-07-29T14:37:40.599Z,21.60
2022-07-29T14:40:11.702Z,21.55
2022-07-29T14:42:40.600Z,21.66
2022-07-29T14:45:12.206Z,21.80
2022-07-29T14:47:51.448Z,21.79
2022-07-29T14:50:31.273Z,21.84
2022-07-29T14:53:00.712Z,21.66
2022-07-29T14:55:29.634Z,21.78
2022-07-29T14:58:07.730Z,21.80
2022-07-29T15:00:40.858Z,21.81
2022-07-29T15:03:11.343Z,21.78
2022-07-29T15:05:40.087Z,21.76
2022-07-29T15:08:09.616Z,21.91
2022-07-29T15:10:38.157Z,21.99
2022-07-29T15:13:06.527Z,21.94
2022-07-29T15:15:35.061Z,21.96
2022-07-29T15:18:05.063Z,22.32
2022-07-29T15:20:33.555Z,22.49
2022-07-29T15:23:01.954Z,22.65
2022-07-29T15:25:30.514Z,22.81
2022-07-29T15:28:01.905Z,22.73
2022-07-29T15:30:33.142Z,22.43
2022-07-29T15:33:05.469Z,22.41
2022-07-29T15:35:40.565Z,22.26
2022-07-29T15:38:09.416Z,21.79
2022-07-29T15:40:41.683Z,21.88
2022-07-29T15:43:10.158Z,21.80
2022-07-29T15:45:40.327Z,21.91
2022-07-29T15:48:14.681Z,21.93
2022-07-29T15:50:47.185Z,21.95
2022-07-29T15:53:16.108Z,21.99
2022-07-29T15:55:45.141Z,21.89
2022-07-29T15:58:13.626Z,21.73
2022-07-29T16:00:43.113Z,21.71
2022-07-29T16:03:13.114Z,21.76
2022-07-29T16:05:42.053Z,21.92
2022-07-29T16:08:10.729Z,21.85
2022-07-29T16:10:39.400Z,21.63
2022-07-29T16:13:08.074Z,21.68
2022-07-29T16:15:37.116Z,21.64
2022-07-29T16:18:05.633Z,21.60
2022-07-29T16:20:36.457Z,21.72
2022-07-29T16:23:05.288Z,21.69
2022-07-29T16:25:58.516Z,21.57
2022-07-29T16:28:22.952Z,21.54
2022-07-29T16:30:51.646Z,21.49
2022-07-29T16:33:20.218Z,21.56
2022-07-29T16:35:50.300Z,21.47
2022-07-29T16:38:32.767Z,21.54
2022-07-29T16:41:01.164Z,21.67
2022-07-29T16:43:29.490Z,21.52
2022-07-29T16:45:58.285Z,21.47
2022-07-29T16:48:27.135Z,21.54
2022-07-29T16:50:56.997Z,21.60
2022-07-29T16:53:29.877Z,21.61
2022-07-29T16:55:58.615Z,21.74
2022-07-29T16:58:27.142Z,21.62
2022-07-29T17:00:55.674Z,21.60
2022-07-29T17:03:24.273Z,21.64
2022-07-29T17:05:54.224Z,21.44
2022-07-29T17:08:25.242Z,21.49
2022-07-29T17:10:53.921Z,21.27
2022-07-29T17:13:22.876Z,21.20
2022-07-29T17:15:51.980Z,21.08
2022-07-29T17:18:21.096Z,21.08
2022-07-29T17:20:49.551Z,21.06
2022-07-29T17:23:18.406Z,21.26
2022-07-29T17:25:48.848Z,21.09
2022-07-29T17:28:17.226Z,21.01
2022-07-29T17:30:45.909Z,21.04
2022-07-29T17:33:14.556Z,21.01
2022-07-29T17:36:00.851Z,20.89
2022-07-29T17:38:30.118Z,20.84
2022-07-29T17:41:01.606Z,20.91
2022-07-29T17:43:36.481Z,20.76
2022-07-29T17:46:09.270Z,20.72
2022-07-29T17:48:38.416Z,20.76
2022-07-29T17:51:07.122Z,20.53
2022-07-29T17:53:35.536Z,20.45
2022-07-29T17:56:06.297Z,20.40
2022-07-29T17:58:35.234Z,20.39
2022-07-29T18:01:04.099Z,20.46
2022-07-29T18:03:33.024Z,20.46
2022-07-29T18:06:01.991Z,20.44
2022-07-29T18:08:30.781Z,20.42
2022-07-29T18:10:59.220Z,20.51
2022-07-29T18:13:29.103Z,20.54
2022-07-29T18:16:00.465Z,20.51
2022-07-29T18:18:30.136Z,20.54
2022-07-29T18:20:59.067Z,20.50
2022-07-29T18:23:27.341Z,20.45
2022-07-29T18:25:56.338Z,20.42
2022-07-29T18:28:25.247Z,20.40
2022-07-29T18:30:56.353Z,20.31
2022-07-29T18:33:24.964Z,20.29
2022-07-29T18:36:10.527Z,20.24
2022-07-29T18:38:40.895Z,20.27
2022-07-29T18:41:09.820Z,20.32
2022-07-29T18:43:38.894Z,20.11
2022-07-29T18:46:09.336Z,19.92
2022-07-29T18:48:38.197Z,19.79
2022-07-29T18:51:09.408Z,19.66
2022-07-29T18:53:38.196Z,19.55
2022-07-29T18:56:06.691Z,19.42
2022-07-29T18:58:37.194Z,19.29
2022-07-29T19:01:05.652Z,19.23
2022-07-29T19:03:35.850Z,19.20
2022-07-29T19:06:04.436Z,19.17
2022-07-29T19:08:33.841Z,19.18
2022-07-29T19:11:03.401Z,19.16
2022-07-29T19:13:33.231Z,19.11
2022-07-29T19:16:01.633Z,19.14
2022-07-29T19:18:37.433Z,19.12
2022-07-29T19:21:06.347Z,19.15
2022-07-29T19:24:02.491Z,19.27
2022-07-29T19:26:23.211Z,19.23
2022-07-29T19:28:54.735Z,19.19
2022-07-29T19:31:23.215Z,19.11
2022-07-29T19:33:54.423Z,19.20
2022-07-29T19:36:23.148Z,19.11
2022-07-29T19:38:51.712Z,19.14
2022-07-29T19:41:20.365Z,19.10
2022-07-29T19:43:51.112Z,19.05
2022-07-29T19:46:22.262Z,19.08
2022-07-29T19:48:53.289Z,19.07
2022-07-29T19:51:22.840Z,19.09
2022-07-29T19:53:51.687Z,19.09
2022-07-29T19:56:20.293Z,19.09
2022-07-29T19:58:48.808Z,19.03
2022-07-29T20:01:18.535Z,19.07
2022-07-29T20:03:47.263Z,18.92
2022-07-29T20:06:17.239Z,18.89
2022-07-29T20:08:48.547Z,18.77
2022-07-29T20:11:24.365Z,18.89
2022-07-29T20:13:52.716Z,18.78
2022-07-29T20:16:22.367Z,18.73
2022-07-29T20:18:51.137Z,18.72
2022-07-29T20:21:21.185Z,18.77
2022-07-29T20:23:49.801Z,18.73
2022-07-29T20:26:19.688Z,18.62
2022-07-29T20:28:49.586Z,18.63
2022-07-29T20:31:19.166Z,18.74
2022-07-29T20:33:49.168Z,18.74
2022-07-29T20:36:18.274Z,18.64
2022-07-29T20:38:48.534Z,18.69
2022-07-29T20:41:17.070Z,18.60
2022-07-29T20:43:45.779Z,18.66
2022-07-29T20:46:14.654Z,18.66
2022-07-29T20:48:43.498Z,18.65
2022-07-29T20:51:12.064Z,18.59
2022-07-29T20:53:40.901Z,18.61
2022-07-29T20:56:12.602Z,18.54
2022-07-29T20:58:42.462Z,18.47
2022-07-29T21:01:11.735Z,18.46
2022-07-29T21:03:41.223Z,18.55
2022-07-29T21:06:10.094Z,18.55
2022-07-29T21:08:40.181Z,18.56
2022-07-29T21:11:08.724Z,18.50
2022-07-29T21:13:40.279Z,18.55
2022-07-29T21:16:15.779Z,18.53
2022-07-29T21:18:53.832Z,18.47
2022-07-29T21:21:22.714Z,18.45
2022-07-29T21:23:51.417Z,18.43
2022-07-29T21:26:19.966Z,18.43
2022-07-29T21:28:50.177Z,18.46
2022-07-29T21:31:19.647Z,18.40
2022-07-29T21:33:48.708Z,18.45
2022-07-29T21:39:08.135Z,18.39
2022-07-29T21:41:36.622Z,18.43
2022-07-29T21:44:06.757Z,18.41
2022-07-29T21:46:36.830Z,18.34
2022-07-29T21:49:06.001Z,18.44
2022-07-29T21:51:34.929Z,18.35
2022-07-29T21:54:04.528Z,18.33
2022-07-29T21:56:33.472Z,18.32
2022-07-29T21:59:02.480Z,18.38
2022-07-29T22:01:39.007Z,18.31
2022-07-29T22:04:08.256Z,18.35
2022-07-29T22:06:36.662Z,18.35
2022-07-29T22:09:05.932Z,18.36
2022-07-29T22:11:36.513Z,18.33
2022-07-29T22:14:05.090Z,18.26
2022-07-29T22:16:35.557Z,18.32
2022-07-29T22:19:05.826Z,18.39
2022-07-29T22:21:34.261Z,18.33
2022-07-29T22:24:03.342Z,18.40
2022-07-29T22:26:31.962Z,18.37
2022-07-29T22:29:00.821Z,18.29
2022-07-29T22:31:29.217Z,18.37
2022-07-29T22:34:02.073Z,18.29
2022-07-29T22:36:30.749Z,18.27
2022-07-29T22:38:59.464Z,18.27
2022-07-29T22:41:28.195Z,18.30
2022-07-29T22:43:56.551Z,18.22
2022-07-29T22:46:24.953Z,18.22
2022-07-29T22:48:53.572Z,18.22
2022-07-29T22:51:23.577Z,18.21
2022-07-29T22:53:52.262Z,18.18
2022-07-29T22:56:21.664Z,18.19
2022-07-29T22:58:50.349Z,18.22
2022-07-29T23:01:37.513Z,18.27
2022-07-29T23:04:06.975Z,18.20
2022-07-29T23:06:37.758Z,18.28
2022-07-29T23:09:06.791Z,18.23
2022-07-29T23:11:35.465Z,18.20
2022-07-29T23:14:04.408Z,18.23
2022-07-29T23:16:38.344Z,18.32
2022-07-29T23:19:07.031Z,18.28
2022-07-29T23:21:36.920Z,18.35
2022-07-29T23:24:05.738Z,18.29
2022-07-29T23:26:34.317Z,18.37
2022-07-29T23:29:03.859Z,18.28
2022-07-29T23:31:32.290Z,18.27
2022-07-29T23:34:01.260Z,18.29
2022-07-29T23:36:29.788Z,18.28
2022-07-29T23:39:00.282Z,18.27
2022-07-29T23:41:31.405Z,18.32
2022-07-29T23:43:59.997Z,18.23
2022-07-29T23:46:28.474Z,18.22
2022-07-29T23:48:57.340Z,18.13
2022-07-29T23:51:29.339Z,18.13
2022-07-29T23:53:57.947Z,18.16
2022-07-29T23:56:29.590Z,18.11
2022-07-29T23:58:58.326Z,18.15
